createdAt,value
2022-08-02T14:10:26.663Z,14.55
2022-08-02T14:13:56.148Z,12.35
2022-08-02T14:16:23.106Z,3.45
2022-08-02T14:18:59.959Z,8.00
2022-08-02T14:21:26.830Z,3.33
2022-08-02T14:23:53.620Z,12.98
2022-08-02T14:26:27.536Z,18.75
2022-08-02T14:28:55.744Z,30.50
2022-08-02T14:31:25.951Z,24.02
2022-08-02T14:33:53.879Z,12.15
2022-08-02T14:36:27.520Z,36.53
2022-08-02T14:38:55.455Z,5.80
2022-08-02T14:41:23.425Z,10.00
2022-08-02T14:44:05.695Z,3.67
2022-08-02T14:46:33.407Z,3.63
2022-08-02T14:49:04.429Z,19.83
2022-08-02T14:51:32.056Z,9.68
2022-08-02T14:54:03.030Z,6.85
2022-08-02T14:56:30.811Z,2.80
2022-08-02T14:58:57.853Z,2.85
2022-08-02T15:01:26.190Z,11.57
2022-08-02T15:03:53.570Z,22.90
2022-08-02T15:06:20.613Z,5.45
2022-08-02T15:08:47.545Z,5.95
2022-08-02T15:11:14.348Z,4.75
2022-08-02T15:13:44.437Z,7.45
2022-08-02T15:16:11.292Z,2.92
2022-08-02T15:18:38.224Z,3.97
2022-08-02T15:21:31.669Z,3.45
2022-08-02T15:23:54.247Z,4.35
2022-08-02T15:26:21.343Z,3.55
2022-08-02T15:28:55.515Z,7.20
2022-08-02T15:31:33.403Z,4.88
2022-08-02T15:34:01.154Z,8.50
2022-08-02T15:36:29.759Z,2.33
2022-08-02T15:38:57.743Z,9.63
2022-08-02T15:41:25.016Z,14.35
2022-08-02T15:44:00.666Z,7.15
2022-08-02T15:46:30.642Z,2.33
2022-08-02T15:48:58.017Z,3.45
2022-08-02T15:51:26.674Z,5.10
2022-08-02T15:53:55.602Z,4.80
2022-08-02T16:24:58.342Z,16.00
2022-08-02T16:27:25.269Z,10.20
2022-08-02T16:29:52.138Z,24.90
2022-08-02T16:32:19.571Z,17.75
2022-08-02T16:35:08.003Z,31.55
2022-08-02T16:37:52.048Z,32.35
2022-08-02T16:40:20.857Z,77.68
2022-08-02T16:42:50.724Z,43.33
2022-08-02T16:45:20.858Z,74.93
2022-08-02T16:47:57.471Z,74.88
2022-08-02T16:50:28.485Z,91.45
2022-08-02T16:52:57.830Z,69.53
2022-08-02T16:55:25.611Z,70.95
2022-08-02T16:57:56.739Z,90.72
2022-08-02T17:00:24.301Z,99.70
2022-08-02T17:02:53.494Z,61.42
2022-08-02T17:05:21.084Z,83.00
2022-08-02T17:08:06.303Z,56.20
2022-08-02T17:10:36.285Z,78.32
2022-08-02T17:13:11.580Z,95.45
2022-08-02T17:16:16.569Z,63.35
2022-08-02T17:18:27.111Z,129.98
2022-08-02T17:20:55.058Z,174.52
2022-08-02T17:23:21.900Z,121.95
2022-08-02T17:25:52.343Z,119.38
2022-08-02T17:28:19.903Z,106.45
2022-08-02T17:30:46.718Z,110.05
2022-08-02T17:33:13.908Z,125.95
2022-08-02T17:35:52.095Z,215.90
2022-08-02T17:38:26.402Z,175.05
2022-08-02T17:40:55.629Z,151.25
2022-08-02T17:46:13.862Z,83.40
2022-08-02T17:52:15.642Z,89.53
2022-08-02T17:54:18.899Z,21.40
2022-08-02T17:56:47.981Z,28.58
2022-08-02T17:59:20.388Z,32.35
2022-08-02T18:01:53.030Z,19.65
2022-08-02T18:04:33.380Z,85.95
2022-08-02T18:07:03.907Z,17.85
2022-08-02T18:09:32.217Z,29.35
2022-08-02T18:12:08.584Z,30.80
2022-08-02T18:14:35.463Z,22.13
2022-08-02T18:17:14.931Z,18.08
2022-08-02T18:19:55.292Z,25.60
2022-08-02T18:22:26.966Z,19.10
2022-08-02T18:24:54.493Z,29.30
2022-08-02T18:27:21.684Z,17.52
2022-08-02T18:29:48.694Z,14.13
2022-08-02T18:33:53.792Z,20.20
2022-08-02T18:35:14.396Z,11.70
2022-08-02T18:37:43.788Z,17.80
2022-08-02T18:40:13.297Z,29.60
2022-08-02T18:42:40.108Z,17.52
2022-08-02T18:45:07.936Z,24.90
2022-08-02T18:47:51.122Z,28.07
2022-08-02T18:50:33.619Z,23.30
2022-08-02T18:53:00.458Z,9.77
2022-08-02T18:55:59.984Z,15.95
2022-08-02T18:58:20.245Z,22.50
2022-08-02T19:00:51.451Z,16.25
2022-08-02T19:03:19.264Z,13.70
2022-08-02T19:05:51.649Z,14.65
2022-08-02T19:08:25.452Z,12.75
2022-08-02T19:13:42.891Z,11.60
2022-08-02T19:16:09.772Z,13.20
2022-08-02T19:18:37.825Z,11.80
2022-08-02T19:21:07.437Z,13.93
2022-08-02T19:23:35.911Z,10.88
2022-08-02T19:26:03.943Z,11.23
2022-08-02T19:28:30.835Z,16.02
2022-08-02T19:30:58.327Z,9.30
2022-08-02T19:34:04.498Z,14.00
2022-08-02T19:36:12.229Z,8.65
2022-08-02T19:38:44.017Z,8.77
2022-08-02T19:41:13.324Z,8.02
2022-08-02T19:44:23.899Z,9.85
2022-08-02T19:46:27.175Z,11.50
2022-08-02T19:48:54.122Z,11.65
2022-08-02T19:51:49.266Z,7.70
2022-08-02T19:54:10.913Z,10.50
2022-08-02T19:56:40.526Z,17.60
2022-08-02T19:59:13.038Z,15.57
2022-08-02T20:01:44.883Z,11.05
2022-08-02T20:04:15.729Z,13.90
2022-08-02T20:06:50.743Z,15.55
2022-08-02T20:09:21.276Z,21.15
2022-08-02T20:11:54.856Z,13.57
2022-08-02T20:14:26.915Z,19.98
2022-08-02T20:16:54.702Z,17.85
2022-08-02T20:19:21.818Z,16.55
2022-08-02T20:21:55.485Z,14.77
2022-08-02T20:24:26.611Z,15.23
2022-08-02T20:26:53.967Z,10.25
2022-08-02T20:29:43.090Z,12.73
2022-08-02T20:32:07.750Z,16.20
2022-08-02T20:34:36.400Z,13.98
2022-08-02T20:38:01.381Z,16.52
2022-08-02T20:39:52.044Z,19.52
2022-08-02T20:42:23.461Z,20.37
2022-08-02T20:44:55.342Z,10.25
2022-08-02T20:47:27.578Z,17.85
2022-08-02T20:50:31.829Z,16.55
2022-08-02T20:53:04.260Z,17.23
2022-08-02T20:55:32.012Z,8.52
2022-08-02T20:58:02.081Z,10.90
2022-08-02T21:00:30.478Z,12.20
2022-08-02T21:02:59.379Z,13.00
2022-08-02T21:05:43.573Z,12.90
2022-08-02T21:08:16.354Z,12.98
2022-08-02T21:10:51.811Z,6.47
2022-08-02T21:13:26.246Z,13.20
2022-08-02T21:15:55.481Z,10.00
2022-08-02T21:18:37.022Z,11.93
2022-08-02T21:23:36.696Z,16.92
2022-08-02T21:26:04.826Z,13.88
2022-08-02T21:28:43.611Z,15.00
2022-08-02T21:31:15.861Z,16.65
2022-08-02T21:33:57.040Z,15.95
2022-08-02T21:36:39.839Z,18.52
2022-08-02T21:39:09.105Z,15.88
2022-08-02T21:41:46.093Z,9.02
2022-08-02T21:44:19.442Z,16.38
2022-08-02T21:46:49.314Z,11.02
2022-08-02T21:49:18.688Z,15.00
2022-08-02T21:51:48.884Z,17.92
2022-08-02T21:54:19.898Z,19.05
2022-08-02T21:56:52.251Z,17.90
2022-08-02T21:59:25.388Z,17.15
2022-08-02T22:01:56.703Z,17.67
2022-08-02T22:04:25.922Z,9.02
2022-08-02T22:06:54.858Z,14.23
2022-08-02T22:09:44.206Z,16.42
2022-08-02T22:12:17.658Z,15.50
2022-08-02T22:17:50.864Z,13.25
2022-08-02T22:20:23.436Z,13.00
2022-08-02T22:22:52.076Z,13.25
2022-08-02T22:25:30.978Z,23.97
2022-08-02T22:28:38.020Z,13.57
2022-08-02T22:30:56.976Z,16.77
2022-08-02T22:34:00.378Z,12.68
2022-08-02T22:36:43.322Z,17.42
2022-08-02T22:39:18.883Z,19.58
2022-08-02T22:42:05.495Z,14.15
2022-08-02T22:44:34.163Z,116.88
2022-08-02T22:47:03.860Z,15.05
2022-08-02T22:49:38.642Z,11.93
2022-08-02T22:52:12.691Z,15.45
2022-08-02T22:54:41.137Z,18.48
2022-08-02T22:57:11.515Z,10.45
2022-08-02T22:58:39.901Z,143.60
2022-08-02T22:58:58.995Z,12.73
2022-08-02T22:59:04.405Z,18.20
2022-08-02T22:59:40.646Z,7.97
2022-08-02T23:02:08.839Z,11.70
2022-08-02T23:04:36.777Z,11.27
2022-08-02T23:07:03.865Z,14.00
2022-08-02T23:09:30.792Z,17.10
2022-08-02T23:11:57.581Z,11.07
2022-08-02T23:14:24.402Z,13.75
2022-08-02T23:17:09.995Z,13.80
2022-08-02T23:19:52.153Z,10.70
2022-08-02T23:22:29.505Z,9.35
2022-08-02T23:25:01.019Z,13.27
2022-08-02T23:27:29.354Z,16.02
2022-08-02T23:29:56.375Z,20.00
2022-08-02T23:32:25.657Z,10.45
2022-08-02T23:34:56.556Z,7.82
2022-08-02T23:37:24.360Z,10.45
2022-08-02T23:39:53.622Z,7.75
2022-08-02T23:42:20.543Z,20.83
2022-08-02T23:44:47.365Z,17.15
2022-08-02T23:47:14.275Z,7.93
2022-08-02T23:49:41.185Z,11.30
2022-08-02T23:52:08.196Z,12.63
2022-08-02T23:54:35.605Z,13.02
2022-08-02T23:57:20.425Z,18.88
2022-08-02T23:59:49.188Z,12.40
